sensor_id;sensor_type;location;lat;lon;timestamp;temperature;humidity
10057;DHT22;5068;51.286;7.518;2023-02-01T00:00:20;4.20;70.90
10057;DHT22;5068;51.286;7.518;2023-02-01T00:01:56;4.20;70.70
10057;DHT22;5068;51.286;7.518;2023-02-01T00:03:29;4.20;71.10
10057;DHT22;5068;51.286;7.518;2023-02-01T00:05:03;4.30;70.70
10057;DHT22;5068;51.286;7.518;2023-02-01T00:06:36;4.30;70.60
10057;DHT22;5068;51.286;7.518;2023-02-01T00:08:09;4.30;70.40
10057;DHT22;5068;51.286;7.518;2023-02-01T00:09:43;4.30;70.30
10057;DHT22;5068;51.286;7.518;2023-02-01T00:11:16;4.30;70.10
10057;DHT22;5068;51.286;7.518;2023-02-01T00:12:49;4.30;70.10
10057;DHT22;5068;51.286;7.518;2023-02-01T00:14:22;4.40;70.20
10057;DHT22;5068;51.286;7.518;2023-02-01T00:15:55;4.40;70.10
10057;DHT22;5068;51.286;7.518;2023-02-01T00:17:36;4.40;70.20
10057;DHT22;5068;51.286;7.518;2023-02-01T00:19:12;4.40;70.10
10057;DHT22;5068;51.286;7.518;2023-02-01T00:20:46;4.40;70.20
10057;DHT22;5068;51.286;7.518;2023-02-01T00:22:20;4.40;70.10
10057;DHT22;5068;51.286;7.518;2023-02-01T00:23:53;4.40;70.00
10057;DHT22;5068;51.286;7.518;2023-02-01T00:25:25;4.40;69.90
10057;DHT22;5068;51.286;7.518;2023-02-01T00:26:58;4.40;69.80
10057;DHT22;5068;51.286;7.518;2023-02-01T00:28:32;4.50;69.90
10057;DHT22;5068;51.286;7.518;2023-02-01T00:30:06;4.50;69.80
10057;DHT22;5068;51.286;7.518;2023-02-01T00:31:41;4.50;69.70
10057;DHT22;5068;51.286;7.518;2023-02-01T00:33:17;4.50;69.60
10057;DHT22;5068;51.286;7.518;2023-02-01T00:34:50;4.50;69.40
10057;DHT22;5068;51.286;7.518;2023-02-01T00:36:23;4.50;69.20
10057;DHT22;5068;51.286;7.518;2023-02-01T00:37:55;4.50;69.00
10057;DHT22;5068;51.286;7.518;2023-02-01T00:39:30;4.50;68.90
10057;DHT22;5068;51.286;7.518;2023-02-01T00:41:06;4.50;68.80
10057;DHT22;5068;51.286;7.518;2023-02-01T00:42:39;4.60;68.80
10057;DHT22;5068;51.286;7.518;2023-02-01T00:44:12;4.60;68.60
10057;DHT22;5068;51.286;7.518;2023-02-01T00:45:45;4.60;68.40
10057;DHT22;5068;51.286;7.518;2023-02-01T00:47:18;4.60;68.30
10057;DHT22;5068;51.286;7.518;2023-02-01T00:48:53;4.60;68.60
10057;DHT22;5068;51.286;7.518;2023-02-01T00:50:26;4.60;68.40
10057;DHT22;5068;51.286;7.518;2023-02-01T00:51:59;4.60;67.90
10057;DHT22;5068;51.286;7.518;2023-02-01T00:53:33;4.60;67.90
10057;DHT22;5068;51.286;7.518;2023-02-01T00:55:06;4.60;67.70
10057;DHT22;5068;51.286;7.518;2023-02-01T00:56:39;4.60;68.40
10057;DHT22;5068;51.286;7.518;2023-02-01T00:58:12;4.70;67.50
10057;DHT22;5068;51.286;7.518;2023-02-01T00:59:45;4.60;67.30
10057;DHT22;5068;51.286;7.518;2023-02-01T01:01:20;4.60;67.30
10057;DHT22;5068;51.286;7.518;2023-02-01T01:02:54;4.60;67.40
10057;DHT22;5068;51.286;7.518;2023-02-01T01:04:29;4.60;67.30
10057;DHT22;5068;51.286;7.518;2023-02-01T01:06:04;4.60;67.20
10057;DHT22;5068;51.286;7.518;2023-02-01T01:07:39;4.60;67.10
10057;DHT22;5068;51.286;7.518;2023-02-01T01:09:13;4.60;67.00
10057;DHT22;5068;51.286;7.518;2023-02-01T01:10:46;4.60;67.00
10057;DHT22;5068;51.286;7.518;2023-02-01T01:12:18;4.60;67.00
10057;DHT22;5068;51.286;7.518;2023-02-01T01:13:53;4.60;67.00
10057;DHT22;5068;51.286;7.518;2023-02-01T01:15:26;4.60;67.10
10057;DHT22;5068;51.286;7.518;2023-02-01T01:16:59;4.60;67.00
10057;DHT22;5068;51.286;7.518;2023-02-01T01:18:34;4.60;66.90
10057;DHT22;5068;51.286;7.518;2023-02-01T01:20:09;4.60;67.00
10057;DHT22;5068;51.286;7.518;2023-02-01T01:21:44;4.60;66.90
10057;DHT22;5068;51.286;7.518;2023-02-01T01:23:17;4.60;66.90
10057;DHT22;5068;51.286;7.518;2023-02-01T01:24:49;4.60;66.90
10057;DHT22;5068;51.286;7.518;2023-02-01T01:26:24;4.60;66.90
10057;DHT22;5068;51.286;7.518;2023-02-01T01:27:58;4.60;66.90
10057;DHT22;5068;51.286;7.518;2023-02-01T01:29:30;4.60;66.90
10057;DHT22;5068;51.286;7.518;2023-02-01T01:31:04;4.60;66.90
10057;DHT22;5068;51.286;7.518;2023-02-01T01:32:41;4.60;67.00
10057;DHT22;5068;51.286;7.518;2023-02-01T01:34:14;4.60;67.00
10057;DHT22;5068;51.286;7.518;2023-02-01T01:35:49;4.60;67.00
10057;DHT22;5068;51.286;7.518;2023-02-01T01:37:22;4.60;67.00
10057;DHT22;5068;51.286;7.518;2023-02-01T01:38:55;4.60;66.90
10057;DHT22;5068;51.286;7.518;2023-02-01T01:40:29;4.60;66.90
10057;DHT22;5068;51.286;7.518;2023-02-01T01:42:02;4.50;66.80
10057;DHT22;5068;51.286;7.518;2023-02-01T01:43:48;4.60;66.80
10057;DHT22;5068;51.286;7.518;2023-02-01T01:45:29;4.50;66.90
10057;DHT22;5068;51.286;7.518;2023-02-01T01:47:02;4.60;67.00
10057;DHT22;5068;51.286;7.518;2023-02-01T01:48:36;4.50;66.80
10057;DHT22;5068;51.286;7.518;2023-02-01T01:50:19;4.60;66.70
10057;DHT22;5068;51.286;7.518;2023-02-01T01:52:00;4.50;66.70
10057;DHT22;5068;51.286;7.518;2023-02-01T01:53:40;4.60;66.70
10057;DHT22;5068;51.286;7.518;2023-02-01T01:55:18;4.50;66.60
10057;DHT22;5068;51.286;7.518;2023-02-01T01:56:58;4.50;66.60
10057;DHT22;5068;51.286;7.518;2023-02-01T01:58:35;4.50;66.60
10057;DHT22;5068;51.286;7.518;2023-02-01T02:00:11;4.50;66.60
10057;DHT22;5068;51.286;7.518;2023-02-01T02:01:59;4.50;66.70
10057;DHT22;5068;51.286;7.518;2023-02-01T02:03:34;4.50;66.60
10057;DHT22;5068;51.286;7.518;2023-02-01T02:05:12;4.50;66.80
10057;DHT22;5068;51.286;7.518;2023-02-01T02:06:47;4.50;66.80
10057;DHT22;5068;51.286;7.518;2023-02-01T02:08:25;4.50;66.90
10057;DHT22;5068;51.286;7.518;2023-02-01T02:10:00;4.50;66.80
10057;DHT22;5068;51.286;7.518;2023-02-01T02:11:37;4.50;66.70
10057;DHT22;5068;51.286;7.518;2023-02-01T02:13:12;4.60;66.70
10057;DHT22;5068;51.286;7.518;2023-02-01T02:14:46;4.50;66.70
10057;DHT22;5068;51.286;7.518;2023-02-01T02:16:47;4.50;66.70
10057;DHT22;5068;51.286;7.518;2023-02-01T02:19:01;4.60;66.80
10057;DHT22;5068;51.286;7.518;2023-02-01T02:21:07;4.60;66.70
10057;DHT22;5068;51.286;7.518;2023-02-01T02:22:58;4.60;66.70
10057;DHT22;5068;51.286;7.518;2023-02-01T02:25:01;4.60;66.70
10057;DHT22;5068;51.286;7.518;2023-02-01T02:27:06;4.60;66.50
10057;DHT22;5068;51.286;7.518;2023-02-01T02:31:40;4.50;66.30
10057;DHT22;5068;51.286;7.518;2023-02-01T02:33:47;4.50;66.30
10057;DHT22;5068;51.286;7.518;2023-02-01T02:35:30;4.50;66.30
10057;DHT22;5068;51.286;7.518;2023-02-01T02:37:18;4.50;66.20
10057;DHT22;5068;51.286;7.518;2023-02-01T02:39:06;4.50;66.10
10057;DHT22;5068;51.286;7.518;2023-02-01T02:40:46;4.50;66.10
10057;DHT22;5068;51.286;7.518;2023-02-01T02:42:31;4.50;66.00
10057;DHT22;5068;51.286;7.518;2023-02-01T02:44:35;4.50;65.90
10057;DHT22;5068;51.286;7.518;2023-02-01T02:46:37;4.50;65.90
10057;DHT22;5068;51.286;7.518;2023-02-01T02:48:36;4.50;65.80
10057;DHT22;5068;51.286;7.518;2023-02-01T02:50:21;4.50;65.70
10057;DHT22;5068;51.286;7.518;2023-02-01T02:52:18;4.40;65.40
10057;DHT22;5068;51.286;7.518;2023-02-01T02:54:15;4.40;65.30
10057;DHT22;5068;51.286;7.518;2023-02-01T02:56:10;4.40;65.30
10057;DHT22;5068;51.286;7.518;2023-02-01T02:58:04;4.40;65.20
10057;DHT22;5068;51.286;7.518;2023-02-01T02:59:59;4.40;65.10
10057;DHT22;5068;51.286;7.518;2023-02-01T03:01:54;4.40;65.00
10057;DHT22;5068;51.286;7.518;2023-02-01T03:03:46;4.40;65.00
10057;DHT22;5068;51.286;7.518;2023-02-01T03:05:46;4.40;64.90
10057;DHT22;5068;51.286;7.518;2023-02-01T03:08:00;4.30;64.80
10057;DHT22;5068;51.286;7.518;2023-02-01T03:09:36;4.30;64.80
10057;DHT22;5068;51.286;7.518;2023-02-01T03:11:14;4.30;64.80
10057;DHT22;5068;51.286;7.518;2023-02-01T03:12:49;4.30;64.80
10057;DHT22;5068;51.286;7.518;2023-02-01T03:14:30;4.30;64.80
10057;DHT22;5068;51.286;7.518;2023-02-01T03:16:10;4.30;64.80
10057;DHT22;5068;51.286;7.518;2023-02-01T03:17:50;4.30;64.90
10057;DHT22;5068;51.286;7.518;2023-02-01T03:19:27;4.30;64.80
10057;DHT22;5068;51.286;7.518;2023-02-01T03:21:10;4.30;64.80
10057;DHT22;5068;51.286;7.518;2023-02-01T03:22:48;4.30;64.80
10057;DHT22;5068;51.286;7.518;2023-02-01T03:24:26;4.30;64.90
10057;DHT22;5068;51.286;7.518;2023-02-01T03:26:09;4.30;65.00
10057;DHT22;5068;51.286;7.518;2023-02-01T03:27:50;4.30;65.10
10057;DHT22;5068;51.286;7.518;2023-02-01T03:29:30;4.30;64.80
10057;DHT22;5068;51.286;7.518;2023-02-01T03:31:10;4.30;64.80
10057;DHT22;5068;51.286;7.518;2023-02-01T03:32:47;4.30;64.70
10057;DHT22;5068;51.286;7.518;2023-02-01T03:34:35;4.30;64.60
10057;DHT22;5068;51.286;7.518;2023-02-01T03:36:15;4.30;64.50
10057;DHT22;5068;51.286;7.518;2023-02-01T03:38:01;4.30;64.40
10057;DHT22;5068;51.286;7.518;2023-02-01T03:39:47;4.30;64.40
10057;DHT22;5068;51.286;7.518;2023-02-01T03:41:30;4.30;64.10
10057;DHT22;5068;51.286;7.518;2023-02-01T03:43:11;4.30;64.00
10057;DHT22;5068;51.286;7.518;2023-02-01T03:44:53;4.30;64.00
10057;DHT22;5068;51.286;7.518;2023-02-01T03:46:34;4.30;63.90
10057;DHT22;5068;51.286;7.518;2023-02-01T03:48:12;4.30;63.90
10057;DHT22;5068;51.286;7.518;2023-02-01T03:49:50;4.30;63.60
10057;DHT22;5068;51.286;7.518;2023-02-01T03:51:28;4.30;63.50
10057;DHT22;5068;51.286;7.518;2023-02-01T03:53:05;4.30;63.50
10057;DHT22;5068;51.286;7.518;2023-02-01T03:54:42;4.30;63.40
10057;DHT22;5068;51.286;7.518;2023-02-01T03:56:18;4.30;63.40
10057;DHT22;5068;51.286;7.518;2023-02-01T03:58:00;4.30;63.30
10057;DHT22;5068;51.286;7.518;2023-02-01T03:59:39;4.30;63.20
10057;DHT22;5068;51.286;7.518;2023-02-01T04:01:12;4.30;63.20
10057;DHT22;5068;51.286;7.518;2023-02-01T04:02:46;4.30;63.20
10057;DHT22;5068;51.286;7.518;2023-02-01T04:04:19;4.30;63.10
10057;DHT22;5068;51.286;7.518;2023-02-01T04:05:56;4.30;63.20
10057;DHT22;5068;51.286;7.518;2023-02-01T04:07:34;4.30;62.90
10057;DHT22;5068;51.286;7.518;2023-02-01T04:09:07;4.30;62.90
10057;DHT22;5068;51.286;7.518;2023-02-01T04:10:40;4.30;63.00
10057;DHT22;5068;51.286;7.518;2023-02-01T04:12:14;4.30;62.90
10057;DHT22;5068;51.286;7.518;2023-02-01T04:13:47;4.30;63.00
10057;DHT22;5068;51.286;7.518;2023-02-01T04:15:20;4.30;63.00
10057;DHT22;5068;51.286;7.518;2023-02-01T04:16:53;4.30;63.00
10057;DHT22;5068;51.286;7.518;2023-02-01T04:18:26;4.40;63.10
10057;DHT22;5068;51.286;7.518;2023-02-01T04:19:59;4.40;63.00
10057;DHT22;5068;51.286;7.518;2023-02-01T04:21:32;4.40;62.90
10057;DHT22;5068;51.286;7.518;2023-02-01T04:23:07;4.40;62.90
10057;DHT22;5068;51.286;7.518;2023-02-01T04:24:40;4.40;62.80
10057;DHT22;5068;51.286;7.518;2023-02-01T04:26:14;4.40;62.80
10057;DHT22;5068;51.286;7.518;2023-02-01T04:27:48;4.40;62.70
10057;DHT22;5068;51.286;7.518;2023-02-01T04:29:21;4.40;62.80
10057;DHT22;5068;51.286;7.518;2023-02-01T04:30:54;4.40;62.70
10057;DHT22;5068;51.286;7.518;2023-02-01T04:32:28;4.40;63.00
10057;DHT22;5068;51.286;7.518;2023-02-01T04:34:00;4.40;62.60
10057;DHT22;5068;51.286;7.518;2023-02-01T04:35:33;4.40;62.30
10057;DHT22;5068;51.286;7.518;2023-02-01T04:37:06;4.40;62.30
10057;DHT22;5068;51.286;7.518;2023-02-01T04:38:40;4.50;62.30
10057;DHT22;5068;51.286;7.518;2023-02-01T04:40:14;4.50;62.40
10057;DHT22;5068;51.286;7.518;2023-02-01T04:41:47;4.50;62.40
10057;DHT22;5068;51.286;7.518;2023-02-01T04:43:20;4.50;62.50
10057;DHT22;5068;51.286;7.518;2023-02-01T04:44:53;4.50;62.60
10057;DHT22;5068;51.286;7.518;2023-02-01T04:46:27;4.50;62.60
10057;DHT22;5068;51.286;7.518;2023-02-01T04:48:00;4.50;62.50
10057;DHT22;5068;51.286;7.518;2023-02-01T04:49:33;4.60;62.60
10057;DHT22;5068;51.286;7.518;2023-02-01T04:51:07;4.50;62.60
10057;DHT22;5068;51.286;7.518;2023-02-01T04:52:41;4.50;62.90
10057;DHT22;5068;51.286;7.518;2023-02-01T04:54:15;4.50;62.90
10057;DHT22;5068;51.286;7.518;2023-02-01T04:55:49;4.50;62.90
10057;DHT22;5068;51.286;7.518;2023-02-01T04:57:22;4.50;62.70
10057;DHT22;5068;51.286;7.518;2023-02-01T04:58:56;4.50;62.80
10057;DHT22;5068;51.286;7.518;2023-02-01T05:00:29;4.50;62.70
10057;DHT22;5068;51.286;7.518;2023-02-01T05:02:02;4.50;62.70
10057;DHT22;5068;51.286;7.518;2023-02-01T05:03:36;4.50;62.60
10057;DHT22;5068;51.286;7.518;2023-02-01T05:05:09;4.50;62.60
10057;DHT22;5068;51.286;7.518;2023-02-01T05:06:41;4.50;62.60
10057;DHT22;5068;51.286;7.518;2023-02-01T05:08:14;4.60;62.70
10057;DHT22;5068;51.286;7.518;2023-02-01T05:09:49;4.60;62.80
10057;DHT22;5068;51.286;7.518;2023-02-01T05:11:22;4.60;62.80
10057;DHT22;5068;51.286;7.518;2023-02-01T05:13:13;4.60;62.80
10057;DHT22;5068;51.286;7.518;2023-02-01T05:15:05;4.60;62.70
10057;DHT22;5068;51.286;7.518;2023-02-01T05:16:39;4.60;62.90
10057;DHT22;5068;51.286;7.518;2023-02-01T05:18:12;4.60;62.80
10057;DHT22;5068;51.286;7.518;2023-02-01T05:19:45;4.60;62.80
10057;DHT22;5068;51.286;7.518;2023-02-01T05:21:18;4.60;62.90
10057;DHT22;5068;51.286;7.518;2023-02-01T05:22:55;4.60;62.90
10057;DHT22;5068;51.286;7.518;2023-02-01T05:24:28;4.60;63.00
10057;DHT22;5068;51.286;7.518;2023-02-01T05:26:03;4.60;62.80
10057;DHT22;5068;51.286;7.518;2023-02-01T05:27:36;4.70;63.00
10057;DHT22;5068;51.286;7.518;2023-02-01T05:29:09;4.60;62.90
10057;DHT22;5068;51.286;7.518;2023-02-01T05:30:43;4.60;62.90
10057;DHT22;5068;51.286;7.518;2023-02-01T05:32:15;4.70;62.90
10057;DHT22;5068;51.286;7.518;2023-02-01T05:33:54;4.70;63.00
10057;DHT22;5068;51.286;7.518;2023-02-01T05:35:27;4.70;63.10
10057;DHT22;5068;51.286;7.518;2023-02-01T05:37:00;4.70;63.00
10057;DHT22;5068;51.286;7.518;2023-02-01T05:38:33;4.70;63.80
10057;DHT22;5068;51.286;7.518;2023-02-01T05:40:07;4.70;62.90
10057;DHT22;5068;51.286;7.518;2023-02-01T05:41:43;4.70;63.00
10057;DHT22;5068;51.286;7.518;2023-02-01T05:43:16;4.70;62.90
10057;DHT22;5068;51.286;7.518;2023-02-01T05:44:49;4.70;63.00
10057;DHT22;5068;51.286;7.518;2023-02-01T05:46:23;4.70;63.00
10057;DHT22;5068;51.286;7.518;2023-02-01T05:47:56;4.70;62.90
10057;DHT22;5068;51.286;7.518;2023-02-01T05:49:30;4.70;62.90
10057;DHT22;5068;51.286;7.518;2023-02-01T05:51:03;4.70;62.90
10057;DHT22;5068;51.286;7.518;2023-02-01T05:52:36;4.70;63.00
10057;DHT22;5068;51.286;7.518;2023-02-01T05:54:10;4.70;62.90
10057;DHT22;5068;51.286;7.518;2023-02-01T05:55:43;4.80;63.00
10057;DHT22;5068;51.286;7.518;2023-02-01T05:57:17;4.80;62.90
10057;DHT22;5068;51.286;7.518;2023-02-01T05:58:50;4.80;62.80
10057;DHT22;5068;51.286;7.518;2023-02-01T06:00:24;4.80;62.90
10057;DHT22;5068;51.286;7.518;2023-02-01T06:01:58;4.80;63.00
10057;DHT22;5068;51.286;7.518;2023-02-01T06:03:31;4.80;62.90
10057;DHT22;5068;51.286;7.518;2023-02-01T06:05:05;4.80;62.80
10057;DHT22;5068;51.286;7.518;2023-02-01T06:06:39;4.80;63.70
10057;DHT22;5068;51.286;7.518;2023-02-01T06:08:13;4.80;62.80
10057;DHT22;5068;51.286;7.518;2023-02-01T06:09:49;4.80;62.90
10057;DHT22;5068;51.286;7.518;2023-02-01T06:11:22;4.80;62.60
10057;DHT22;5068;51.286;7.518;2023-02-01T06:13:04;4.80;62.70
10057;DHT22;5068;51.286;7.518;2023-02-01T06:14:39;4.90;62.80
10057;DHT22;5068;51.286;7.518;2023-02-01T06:16:12;4.80;62.60
10057;DHT22;5068;51.286;7.518;2023-02-01T06:17:47;4.80;62.50
10057;DHT22;5068;51.286;7.518;2023-02-01T06:19:20;4.80;62.20
10057;DHT22;5068;51.286;7.518;2023-02-01T06:20:54;4.80;62.60
10057;DHT22;5068;51.286;7.518;2023-02-01T06:22:27;4.80;62.70
10057;DHT22;5068;51.286;7.518;2023-02-01T06:24:00;4.80;62.70
10057;DHT22;5068;51.286;7.518;2023-02-01T06:25:33;4.80;62.70
10057;DHT22;5068;51.286;7.518;2023-02-01T06:27:07;4.80;62.70
10057;DHT22;5068;51.286;7.518;2023-02-01T06:28:42;4.80;62.70
10057;DHT22;5068;51.286;7.518;2023-02-01T06:30:14;4.80;62.60
10057;DHT22;5068;51.286;7.518;2023-02-01T06:31:49;4.80;62.60
10057;DHT22;5068;51.286;7.518;2023-02-01T06:33:22;4.80;62.50
10057;DHT22;5068;51.286;7.518;2023-02-01T06:34:56;4.80;62.70
10057;DHT22;5068;51.286;7.518;2023-02-01T06:36:29;4.80;62.70
10057;DHT22;5068;51.286;7.518;2023-02-01T06:38:02;4.80;62.70
10057;DHT22;5068;51.286;7.518;2023-02-01T06:39:36;4.80;62.70
10057;DHT22;5068;51.286;7.518;2023-02-01T06:41:10;4.80;62.70
10057;DHT22;5068;51.286;7.518;2023-02-01T06:42:43;4.80;62.60
10057;DHT22;5068;51.286;7.518;2023-02-01T06:44:17;4.90;62.70
10057;DHT22;5068;51.286;7.518;2023-02-01T06:45:51;4.80;62.70
10057;DHT22;5068;51.286;7.518;2023-02-01T06:47:25;4.80;62.60
10057;DHT22;5068;51.286;7.518;2023-02-01T06:48:57;4.90;62.70
10057;DHT22;5068;51.286;7.518;2023-02-01T06:50:30;4.80;62.50
10057;DHT22;5068;51.286;7.518;2023-02-01T06:52:04;4.80;62.50
10057;DHT22;5068;51.286;7.518;2023-02-01T06:53:37;4.80;62.50
10057;DHT22;5068;51.286;7.518;2023-02-01T06:55:10;4.80;62.60
10057;DHT22;5068;51.286;7.518;2023-02-01T06:56:42;4.80;62.60
10057;DHT22;5068;51.286;7.518;2023-02-01T06:58:15;4.80;62.60
10057;DHT22;5068;51.286;7.518;2023-02-01T06:59:50;4.80;62.50
10057;DHT22;5068;51.286;7.518;2023-02-01T07:01:23;4.80;62.50
10057;DHT22;5068;51.286;7.518;2023-02-01T07:02:57;4.80;62.50
10057;DHT22;5068;51.286;7.518;2023-02-01T07:04:31;4.80;62.60
10057;DHT22;5068;51.286;7.518;2023-02-01T07:06:07;4.90;62.70
10057;DHT22;5068;51.286;7.518;2023-02-01T07:07:41;4.80;63.30
10057;DHT22;5068;51.286;7.518;2023-02-01T07:09:14;4.80;62.40
10057;DHT22;5068;51.286;7.518;2023-02-01T07:10:47;4.80;62.30
10057;DHT22;5068;51.286;7.518;2023-02-01T07:12:21;4.80;62.50
10057;DHT22;5068;51.286;7.518;2023-02-01T07:13:54;4.80;62.20
10057;DHT22;5068;51.286;7.518;2023-02-01T07:15:29;4.80;63.10
10057;DHT22;5068;51.286;7.518;2023-02-01T07:17:02;4.80;62.20
10057;DHT22;5068;51.286;7.518;2023-02-01T07:18:35;4.80;62.20
10057;DHT22;5068;51.286;7.518;2023-02-01T07:20:09;4.90;62.30
10057;DHT22;5068;51.286;7.518;2023-02-01T07:21:43;4.90;62.20
10057;DHT22;5068;51.286;7.518;2023-02-01T07:23:16;4.90;62.10
10057;DHT22;5068;51.286;7.518;2023-02-01T07:24:49;4.90;62.00
10057;DHT22;5068;51.286;7.518;2023-02-01T07:26:23;4.80;61.80
10057;DHT22;5068;51.286;7.518;2023-02-01T07:27:56;4.90;62.00
10057;DHT22;5068;51.286;7.518;2023-02-01T07:29:29;4.90;62.00
10057;DHT22;5068;51.286;7.518;2023-02-01T07:31:05;4.90;61.80
10057;DHT22;5068;51.286;7.518;2023-02-01T07:32:39;4.90;61.90
10057;DHT22;5068;51.286;7.518;2023-02-01T07:34:13;4.90;61.80
10057;DHT22;5068;51.286;7.518;2023-02-01T07:35:47;4.90;61.70
10057;DHT22;5068;51.286;7.518;2023-02-01T07:37:24;4.90;61.90
10057;DHT22;5068;51.286;7.518;2023-02-01T07:38:57;4.90;61.80
10057;DHT22;5068;51.286;7.518;2023-02-01T07:40:31;4.90;61.80
10057;DHT22;5068;51.286;7.518;2023-02-01T07:42:05;4.90;61.90
10057;DHT22;5068;51.286;7.518;2023-02-01T07:43:39;4.90;62.00
10057;DHT22;5068;51.286;7.518;2023-02-01T07:45:12;4.90;62.00
10057;DHT22;5068;51.286;7.518;2023-02-01T07:46:53;4.90;62.00
10057;DHT22;5068;51.286;7.518;2023-02-01T07:48:27;4.90;61.90
10057;DHT22;5068;51.286;7.518;2023-02-01T07:50:00;4.90;61.90
10057;DHT22;5068;51.286;7.518;2023-02-01T07:51:33;4.90;62.70
10057;DHT22;5068;51.286;7.518;2023-02-01T07:53:07;4.90;61.90
10057;DHT22;5068;51.286;7.518;2023-02-01T07:54:40;4.90;61.90
10057;DHT22;5068;51.286;7.518;2023-02-01T07:56:15;4.90;62.00
10057;DHT22;5068;51.286;7.518;2023-02-01T07:57:49;4.90;62.00
10057;DHT22;5068;51.286;7.518;2023-02-01T07:59:22;4.90;61.90
10057;DHT22;5068;51.286;7.518;2023-02-01T08:00:55;4.90;61.90
10057;DHT22;5068;51.286;7.518;2023-02-01T08:02:48;4.90;62.40
10057;DHT22;5068;51.286;7.518;2023-02-01T08:04:22;4.90;62.00
10057;DHT22;5068;51.286;7.518;2023-02-01T08:05:56;5.00;62.00
10057;DHT22;5068;51.286;7.518;2023-02-01T08:07:29;4.90;61.90
10057;DHT22;5068;51.286;7.518;2023-02-01T08:09:03;4.90;61.90
10057;DHT22;5068;51.286;7.518;2023-02-01T08:10:37;4.90;61.90
10057;DHT22;5068;51.286;7.518;2023-02-01T08:12:10;4.90;61.90
10057;DHT22;5068;51.286;7.518;2023-02-01T08:13:44;4.90;61.90
10057;DHT22;5068;51.286;7.518;2023-02-01T08:15:20;4.90;61.90
10057;DHT22;5068;51.286;7.518;2023-02-01T08:16:53;5.00;61.90
10057;DHT22;5068;51.286;7.518;2023-02-01T08:18:27;4.90;61.80
10057;DHT22;5068;51.286;7.518;2023-02-01T08:20:01;4.90;61.90
10057;DHT22;5068;51.286;7.518;2023-02-01T08:21:35;4.90;61.90
10057;DHT22;5068;51.286;7.518;2023-02-01T08:23:11;4.90;61.90
10057;DHT22;5068;51.286;7.518;2023-02-01T08:24:47;4.90;62.10
10057;DHT22;5068;51.286;7.518;2023-02-01T08:26:23;4.90;62.00
10057;DHT22;5068;51.286;7.518;2023-02-01T08:27:58;4.90;62.00
10057;DHT22;5068;51.286;7.518;2023-02-01T08:29:31;4.90;62.00
10057;DHT22;5068;51.286;7.518;2023-02-01T08:31:07;4.90;62.00
10057;DHT22;5068;51.286;7.518;2023-02-01T08:32:41;5.00;62.10
10057;DHT22;5068;51.286;7.518;2023-02-01T08:34:16;5.00;62.00
10057;DHT22;5068;51.286;7.518;2023-02-01T08:35:49;5.00;62.00
10057;DHT22;5068;51.286;7.518;2023-02-01T08:37:23;5.00;62.10
10057;DHT22;5068;51.286;7.518;2023-02-01T08:38:56;5.00;62.00
10057;DHT22;5068;51.286;7.518;2023-02-01T08:40:31;5.00;62.10
10057;DHT22;5068;51.286;7.518;2023-02-01T08:42:05;5.00;62.10
10057;DHT22;5068;51.286;7.518;2023-02-01T08:43:57;5.00;62.10
10057;DHT22;5068;51.286;7.518;2023-02-01T08:45:31;5.00;62.20
10057;DHT22;5068;51.286;7.518;2023-02-01T08:47:04;5.00;62.10
10057;DHT22;5068;51.286;7.518;2023-02-01T08:48:38;5.00;62.10
10057;DHT22;5068;51.286;7.518;2023-02-01T08:50:13;5.00;62.10
10057;DHT22;5068;51.286;7.518;2023-02-01T08:51:47;5.00;62.00
10057;DHT22;5068;51.286;7.518;2023-02-01T08:53:20;5.00;61.90
10057;DHT22;5068;51.286;7.518;2023-02-01T08:54:54;5.00;61.90
10057;DHT22;5068;51.286;7.518;2023-02-01T08:56:27;5.00;61.80
10057;DHT22;5068;51.286;7.518;2023-02-01T08:58:00;5.10;61.80
10057;DHT22;5068;51.286;7.518;2023-02-01T08:59:34;5.00;61.80
10057;DHT22;5068;51.286;7.518;2023-02-01T09:01:09;5.00;61.80
10057;DHT22;5068;51.286;7.518;2023-02-01T09:02:43;5.00;61.80
10057;DHT22;5068;51.286;7.518;2023-02-01T09:04:17;5.10;61.80
10057;DHT22;5068;51.286;7.518;2023-02-01T09:05:52;5.00;61.60
10057;DHT22;5068;51.286;7.518;2023-02-01T09:07:25;5.10;61.70
10057;DHT22;5068;51.286;7.518;2023-02-01T09:08:58;5.10;61.70
10057;DHT22;5068;51.286;7.518;2023-02-01T09:10:32;5.10;61.60
10057;DHT22;5068;51.286;7.518;2023-02-01T09:12:06;5.10;61.60
10057;DHT22;5068;51.286;7.518;2023-02-01T09:13:40;5.10;61.50
10057;DHT22;5068;51.286;7.518;2023-02-01T09:15:14;5.10;62.20
10057;DHT22;5068;51.286;7.518;2023-02-01T09:16:47;5.10;61.40
10057;DHT22;5068;51.286;7.518;2023-02-01T09:18:21;5.10;61.40
10057;DHT22;5068;51.286;7.518;2023-02-01T09:19:55;5.20;61.80
10057;DHT22;5068;51.286;7.518;2023-02-01T09:21:30;5.20;61.70
10057;DHT22;5068;51.286;7.518;2023-02-01T09:23:03;5.20;61.50
10057;DHT22;5068;51.286;7.518;2023-02-01T09:24:38;5.20;61.40
10057;DHT22;5068;51.286;7.518;2023-02-01T09:26:11;5.20;61.40
10057;DHT22;5068;51.286;7.518;2023-02-01T09:27:50;5.20;61.30
10057;DHT22;5068;51.286;7.518;2023-02-01T09:29:23;5.20;61.30
10057;DHT22;5068;51.286;7.518;2023-02-01T09:30:57;5.20;61.30
10057;DHT22;5068;51.286;7.518;2023-02-01T09:32:31;5.20;61.40
10057;DHT22;5068;51.286;7.518;2023-02-01T09:34:04;5.20;61.20
10057;DHT22;5068;51.286;7.518;2023-02-01T09:35:38;5.20;61.30
10057;DHT22;5068;51.286;7.518;2023-02-01T09:37:13;5.30;61.30
10057;DHT22;5068;51.286;7.518;2023-02-01T09:38:46;5.30;61.30
10057;DHT22;5068;51.286;7.518;2023-02-01T09:40:24;5.30;61.70
10057;DHT22;5068;51.286;7.518;2023-02-01T09:42:07;5.20;61.40
10057;DHT22;5068;51.286;7.518;2023-02-01T09:43:58;5.30;61.30
10057;DHT22;5068;51.286;7.518;2023-02-01T09:45:46;5.30;61.20
10057;DHT22;5068;51.286;7.518;2023-02-01T09:47:25;5.30;61.20
10057;DHT22;5068;51.286;7.518;2023-02-01T09:49:01;5.30;61.20
10057;DHT22;5068;51.286;7.518;2023-02-01T09:50:41;5.30;61.20
10057;DHT22;5068;51.286;7.518;2023-02-01T09:52:24;5.30;61.10
10057;DHT22;5068;51.286;7.518;2023-02-01T09:54:05;5.40;60.00
10057;DHT22;5068;51.286;7.518;2023-02-01T09:55:44;5.30;61.10
10057;DHT22;5068;51.286;7.518;2023-02-01T09:57:23;5.30;61.00
10057;DHT22;5068;51.286;7.518;2023-02-01T09:59:03;5.40;59.90
10057;DHT22;5068;51.286;7.518;2023-02-01T10:00:44;5.40;59.90
10057;DHT22;5068;51.286;7.518;2023-02-01T10:02:25;5.40;59.90
10057;DHT22;5068;51.286;7.518;2023-02-01T10:04:03;5.40;59.90
10057;DHT22;5068;51.286;7.518;2023-02-01T10:06:01;5.40;59.80
10057;DHT22;5068;51.286;7.518;2023-02-01T10:08:01;5.40;59.70
10057;DHT22;5068;51.286;7.518;2023-02-01T10:09:48;5.40;59.70
10057;DHT22;5068;51.286;7.518;2023-02-01T10:11:35;5.40;59.70
10057;DHT22;5068;51.286;7.518;2023-02-01T10:13:46;5.40;59.50
10057;DHT22;5068;51.286;7.518;2023-02-01T10:15:45;5.40;59.40
10057;DHT22;5068;51.286;7.518;2023-02-01T10:17:38;5.40;59.30
10057;DHT22;5068;51.286;7.518;2023-02-01T10:19:29;5.40;59.40
10057;DHT22;5068;51.286;7.518;2023-02-01T10:21:18;5.40;59.40
10057;DHT22;5068;51.286;7.518;2023-02-01T10:23:08;5.40;59.40
10057;DHT22;5068;51.286;7.518;2023-02-01T10:25:08;5.40;59.30
10057;DHT22;5068;51.286;7.518;2023-02-01T10:26:56;5.40;59.40
10057;DHT22;5068;51.286;7.518;2023-02-01T10:28:36;5.40;59.40
10057;DHT22;5068;51.286;7.518;2023-02-01T10:30:19;5.40;59.30
10057;DHT22;5068;51.286;7.518;2023-02-01T10:31:55;5.40;59.80
10057;DHT22;5068;51.286;7.518;2023-02-01T10:33:33;5.40;59.10
10057;DHT22;5068;51.286;7.518;2023-02-01T10:35:13;5.40;59.20
10057;DHT22;5068;51.286;7.518;2023-02-01T10:36:53;5.40;59.10